Time;durP1;ratioP1;P1;durP2;ratioP2;P2;SDS_P1;SDS_P2;PMS_P1;PMS_P2;Temp;Humidity;BMP_temperature;BMP_pressure;BME280_temperature;BME280_humidity;BME280_pressure;Samples;Min_cycle;Max_cycle;Signal;HPM_P1;HPM_P2
2021/10/09 00:00:33;;;;;;;44.13;19.87;;;;;;;1.37;72.02;100621.14;2149156;83;20927;-79
2021/10/09 00:03:35;;;;;;;45.53;20.30;;;;;;;1.36;71.85;100611.62;2130692;83;21295;-80
2021/10/09 00:06:36;;;;;;;42.60;19.30;;;;;;;1.34;71.63;100613.19;2149157;83;20952;-80
2021/10/09 00:09:37;;;;;;;50.00;20.20;;;;;;;1.27;71.82;100614.01;2148986;83;20942;-80
2021/10/09 00:12:37;;;;;;;41.40;19.53;;;;;;;1.19;71.94;100621.53;2149028;83;20951;-80
2021/10/09 00:15:38;;;;;;;42.03;18.83;;;;;;;1.12;72.05;100614.52;2148919;83;21019;-80
2021/10/09 00:18:38;;;;;;;41.60;17.87;;;;;;;1.06;72.07;100618.80;2148976;83;21379;-79
2021/10/09 00:21:43;;;;;;;40.20;19.20;;;;;;;1.00;72.26;100620.89;2148638;83;20994;-80
2021/10/09 00:24:41;;;;;;;35.97;18.83;;;;;;;0.96;72.33;100618.86;2148604;83;20896;-80
2021/10/09 00:27:41;;;;;;;42.00;18.67;;;;;;;0.90;72.54;100612.85;2148927;83;20908;-80
2021/10/09 00:30:42;;;;;;;40.63;17.70;;;;;;;0.84;72.54;100608.88;2148887;83;20956;-80
2021/10/09 00:33:42;;;;;;;27.23;16.27;;;;;;;0.79;72.66;100607.23;2148916;83;20926;-80
2021/10/09 00:36:43;;;;;;;35.50;17.17;;;;;;;0.77;72.72;100607.89;2148494;83;20963;-79
2021/10/09 00:39:43;;;;;;;29.20;14.07;;;;;;;0.75;72.74;100604.30;2148960;83;21323;-79
2021/10/09 00:42:44;;;;;;;49.50;16.90;;;;;;;0.73;72.79;100603.28;2148884;83;20927;-80
2021/10/09 00:45:44;;;;;;;25.83;13.30;;;;;;;0.73;73.19;100604.57;2148851;82;20986;-79
2021/10/09 00:48:45;;;;;;;21.77;13.27;;;;;;;0.69;72.90;100605.11;2149068;83;20892;-80
2021/10/09 00:51:45;;;;;;;28.40;14.17;;;;;;;0.64;73.07;100599.22;2148649;83;20978;-80
2021/10/09 00:54:46;;;;;;;63.33;17.90;;;;;;;0.62;73.27;100600.77;2148878;83;20959;-80
2021/10/09 00:57:46;;;;;;;30.33;13.97;;;;;;;0.63;73.62;100603.84;2148991;83;20983;-79
2021/10/09 01:00:47;;;;;;;31.67;14.73;;;;;;;0.64;73.42;100599.22;2148888;83;20892;-79
2021/10/09 01:03:50;;;;;;;40.33;14.70;;;;;;;0.63;73.24;100598.70;2148908;83;20956;-79
2021/10/09 01:06:50;;;;;;;29.07;13.27;;;;;;;0.64;73.28;100606.03;2148769;83;20923;-79
2021/10/09 01:09:50;;;;;;;31.53;15.13;;;;;;;0.63;73.03;100599.99;2148828;83;20924;-79
2021/10/09 01:12:51;;;;;;;33.20;14.63;;;;;;;0.60;73.24;100603.61;2148978;83;20927;-79
2021/10/09 01:15:51;;;;;;;31.47;15.60;;;;;;;0.59;73.33;100603.09;2148780;83;20923;-79
2021/10/09 01:18:52;;;;;;;37.23;18.03;;;;;;;0.55;73.24;100604.02;2148855;83;20912;-79
2021/10/09 01:21:52;;;;;;;42.27;19.70;;;;;;;0.52;73.32;100598.64;2148972;83;21382;-79
2021/10/09 01:24:53;;;;;;;34.97;16.50;;;;;;;0.46;73.26;100591.34;2149047;83;21363;-80
2021/10/09 01:27:54;;;;;;;29.60;14.07;;;;;;;0.44;73.42;100601.89;2149073;83;20971;-79
2021/10/09 01:30:54;;;;;;;25.73;14.70;;;;;;;0.41;73.46;100593.94;2148890;83;20951;-80
2021/10/09 01:33:55;;;;;;;30.27;14.30;;;;;;;0.37;73.57;100593.57;2148932;83;20939;-79
2021/10/09 01:36:57;;;;;;;30.13;13.77;;;;;;;0.37;73.81;100590.61;2148659;83;21366;-80
2021/10/09 01:39:57;;;;;;;26.37;13.97;;;;;;;0.37;73.64;100585.48;2148908;83;20934;-79
2021/10/09 01:42:58;;;;;;;33.30;15.37;;;;;;;0.35;73.89;100587.03;2148937;83;20953;-79
2021/10/09 01:45:58;;;;;;;24.03;12.77;;;;;;;0.32;73.99;100588.06;2145442;82;21355;-79
2021/10/09 01:48:59;;;;;;;31.63;14.00;;;;;;;0.33;73.91;100585.11;2139271;83;21095;-80
2021/10/09 01:51:59;;;;;;;31.03;13.67;;;;;;;0.30;74.09;100585.77;2138639;83;20971;-79
2021/10/09 01:55:00;;;;;;;32.00;13.70;;;;;;;0.27;74.02;100584.23;2138894;83;21016;-80
2021/10/09 01:58:00;;;;;;;21.90;12.70;;;;;;;0.24;74.29;100583.61;2138954;83;21003;-80
2021/10/09 02:01:01;;;;;;;30.23;14.37;;;;;;;0.25;74.05;100585.78;2138893;83;20920;-80
2021/10/09 02:04:03;;;;;;;27.87;13.57;;;;;;;0.24;74.18;100587.84;2138901;83;20943;-79
2021/10/09 02:07:04;;;;;;;31.50;13.90;;;;;;;0.21;74.07;100587.60;2138896;83;21040;-81
2021/10/09 02:10:04;;;;;;;22.67;12.53;;;;;;;0.17;73.99;100581.70;2139170;83;20889;-80
2021/10/09 02:13:07;;;;;;;23.37;13.50;;;;;;;0.16;74.13;100586.34;2139193;83;20884;-80
2021/10/09 02:25:56;;;;;;;40.43;15.90;;;;;;;0.23;74.04;100589.91;2139142;83;20992;-80
2021/10/09 02:28:57;;;;;;;25.40;14.20;;;;;;;0.24;73.98;100586.17;2138927;83;20972;-79
2021/10/09 02:31:57;;;;;;;34.50;14.87;;;;;;;0.27;73.90;100590.66;2139375;83;20935;-79
2021/10/09 02:34:58;;;;;;;29.57;16.10;;;;;;;0.27;73.71;100590.66;2139021;83;20924;-79
2021/10/09 02:37:58;;;;;;;36.23;15.53;;;;;;;0.24;73.66;100592.59;2138918;83;20952;-79
2021/10/09 02:40:59;;;;;;;33.60;16.23;;;;;;;0.22;73.66;100598.38;2139194;83;20972;-79
2021/10/09 02:43:59;;;;;;;79.10;20.90;;;;;;;0.15;73.58;100598.66;2139072;83;21280;-79
2021/10/09 02:47:00;;;;;;;36.07;16.90;;;;;;;0.07;73.75;100599.33;2145110;83;20971;-79
2021/10/09 02:50:02;;;;;;;31.77;15.93;;;;;;;0.01;73.64;100596.66;2149031;83;21026;-79
2021/10/09 02:53:04;;;;;;;28.97;15.73;;;;;;;-0.07;73.58;100599.46;2149297;83;21035;-80
2021/10/09 02:56:05;;;;;;;31.90;15.23;;;;;;;-0.13;73.68;100598.97;2149091;83;20928;-79
2021/10/09 02:59:06;;;;;;;31.83;14.50;;;;;;;-0.18;73.79;100597.69;2149095;83;21153;-79
2021/10/09 03:02:06;;;;;;;34.37;15.43;;;;;;;-0.17;73.97;100598.59;2148946;83;20892;-78
2021/10/09 03:05:07;;;;;;;86.37;19.80;;;;;;;-0.15;73.97;100600.51;2148935;83;20956;-79
2021/10/09 03:08:08;;;;;;;32.93;15.70;;;;;;;-0.17;74.00;100594.74;2148930;83;20928;-79
2021/10/09 03:11:08;;;;;;;30.97;14.90;;;;;;;-0.18;73.97;100596.80;2149119;83;20924;-79
2021/10/09 03:14:09;;;;;;;35.43;17.33;;;;;;;-0.22;73.90;100605.91;2149167;83;21344;-79
2021/10/09 03:17:09;;;;;;;31.73;16.40;;;;;;;-0.24;73.90;100609.13;2148914;83;20939;-79
2021/10/09 03:20:10;;;;;;;25.30;14.97;;;;;;;-0.24;73.99;100606.56;2149135;83;20990;-79
2021/10/09 03:23:10;;;;;;;32.13;15.90;;;;;;;-0.22;74.12;100605.91;2149105;83;21338;-79
2021/10/09 03:26:11;;;;;;;29.43;15.47;;;;;;;-0.22;74.09;100616.18;2149073;83;20930;-79
2021/10/09 03:29:11;;;;;;;36.33;18.03;;;;;;;-0.23;74.06;100610.92;2149226;83;20971;-80
2021/10/09 03:32:12;;;;;;;32.43;15.63;;;;;;;-0.19;74.26;100606.55;2148887;83;20935;-80
2021/10/09 03:35:12;;;;;;;30.50;15.17;;;;;;;-0.17;73.91;100609.75;2149016;83;20948;-80
2021/10/09 03:38:13;;;;;;;31.00;16.13;;;;;;;-0.21;73.84;100602.96;2149126;83;21362;-79
2021/10/09 03:41:15;;;;;;;31.10;15.97;;;;;;;-0.23;73.88;100604.12;2149489;83;20974;-79
2021/10/09 03:44:16;;;;;;;33.73;16.87;;;;;;;-0.26;73.89;100609.00;2148698;83;20944;-80
2021/10/09 03:47:22;;;;;;;31.27;16.60;;;;;;;-0.30;73.85;100608.23;2148593;82;20964;-79
2021/10/09 03:50:22;;;;;;;24.90;14.37;;;;;;;-0.34;73.96;100606.19;2147732;83;21446;-79
2021/10/09 03:53:21;;;;;;;27.70;14.80;;;;;;;-0.37;74.15;100604.66;2148650;83;20975;-79
2021/10/09 03:56:21;;;;;;;26.23;15.30;;;;;;;-0.38;74.11;100602.86;2149108;83;20936;-79
2021/10/09 03:59:22;;;;;;;29.73;15.70;;;;;;;-0.36;74.17;100607.73;2149100;83;20939;-79
2021/10/09 04:02:22;;;;;;;25.93;15.37;;;;;;;-0.36;73.99;100603.50;2149081;83;20935;-79
2021/10/09 04:05:24;;;;;;;27.20;14.13;;;;;;;-0.34;74.09;100601.95;2148620;83;21453;-79
2021/10/09 04:08:24;;;;;;;27.37;14.50;;;;;;;-0.35;73.75;100605.68;2148477;83;20928;-79
2021/10/09 04:11:25;;;;;;;29.30;14.87;;;;;;;-0.37;73.97;100602.09;2148234;83;20936;-79
2021/10/09 04:14:25;;;;;;;26.37;13.83;;;;;;;-0.35;74.01;100602.73;2148349;83;20920;-79
2021/10/09 04:17:26;;;;;;;29.03;16.00;;;;;;;-0.32;74.00;100604.27;2148203;83;20955;-80
2021/10/09 04:20:26;;;;;;;27.60;16.00;;;;;;;-0.33;73.83;100607.98;2147585;83;21375;-79
2021/10/09 04:23:26;;;;;;;35.87;17.00;;;;;;;-0.38;73.81;100608.89;2147622;83;21296;-79
2021/10/09 04:26:27;;;;;;;39.13;16.07;;;;;;;-0.43;73.74;100601.58;2147621;83;20904;-79
2021/10/09 04:29:28;;;;;;;29.73;15.40;;;;;;;-0.47;73.83;100602.09;2147531;83;20936;-81
2021/10/09 04:32:28;;;;;;;27.67;15.37;;;;;;;-0.53;73.47;100600.31;2147501;83;20917;-80
2021/10/09 04:35:28;;;;;;;35.00;17.83;;;;;;;-0.57;73.90;100600.83;2147930;83;20932;-79
2021/10/09 04:38:29;;;;;;;32.13;17.10;;;;;;;-0.57;74.05;100602.11;2148471;83;20963;-80
2021/10/09 04:41:29;;;;;;;39.23;17.60;;;;;;;-0.53;73.87;100608.90;2148434;83;20966;-79
2021/10/09 04:44:30;;;;;;;30.03;17.83;;;;;;;-0.57;73.66;100608.13;2148559;83;20896;-79
2021/10/09 04:47:31;;;;;;;34.23;18.80;;;;;;;-0.57;73.93;100606.85;2142478;82;20967;-80
2021/10/09 04:50:31;;;;;;;40.17;18.80;;;;;;;-0.60;73.78;100613.01;2139132;83;21386;-82
2021/10/09 04:53:32;;;;;;;38.83;19.17;;;;;;;-0.63;73.87;100618.27;2140651;83;20932;-81
2021/10/09 04:56:32;;;;;;;40.10;19.13;;;;;;;-0.64;73.79;100619.94;2140823;83;20916;-80
2021/10/09 04:59:33;;;;;;;56.13;22.10;;;;;;;-0.57;74.30;100629.03;2140241;83;20943;-80
2021/10/09 05:02:33;;;;;;;99.33;28.70;;;;;;;-0.52;74.57;100630.32;2139953;83;20976;-83
2021/10/09 05:05:34;;;;;;;62.80;26.07;;;;;;;-0.44;74.81;100631.47;2139388;83;20936;-81
2021/10/09 05:08:34;;;;;;;49.77;22.03;;;;;;;-0.37;74.63;100635.44;2139126;83;21394;-82
2021/10/09 05:11:35;;;;;;;50.47;22.93;;;;;;;-0.34;74.00;100637.88;2139162;83;21320;-81
2021/10/09 05:14:35;;;;;;;58.40;25.10;;;;;;;-0.42;73.61;100632.88;2139290;83;20936;-82
2021/10/09 05:17:36;;;;;;;64.87;27.53;;;;;;;-0.48;73.60;100638.40;2139223;83;20956;-82
2021/10/09 05:20:36;;;;;;;50.23;23.17;;;;;;;-0.49;73.58;100637.89;2139295;83;20967;-82
2021/10/09 05:23:37;;;;;;;45.27;20.70;;;;;;;-0.50;73.67;100636.09;2139205;83;20892;-82
2021/10/09 05:26:39;;;;;;;45.40;22.17;;;;;;;-0.49;73.66;100636.98;2139045;83;21324;-82
2021/10/09 05:29:39;;;;;;;44.53;21.53;;;;;;;-0.46;73.61;100637.25;2139533;83;20954;-82
2021/10/09 05:33:09;;;;;;;41.90;22.40;;;;;;;-0.42;73.68;100638.91;2139391;83;21300;-82
2021/10/09 05:35:51;;;;;;;38.33;19.90;;;;;;;-0.34;73.92;100638.27;2135707;83;20943;-82
2021/10/09 05:38:51;;;;;;;38.07;21.03;;;;;;;-0.26;73.89;100635.95;2139873;83;20979;-81
2021/10/09 05:41:52;;;;;;;40.80;21.00;;;;;;;-0.13;74.15;100634.90;2139449;83;20936;-81
2021/10/09 05:44:52;;;;;;;38.97;21.37;;;;;;;0.09;74.15;100634.12;2139445;83;20955;-81
2021/10/09 05:47:53;;;;;;;34.90;20.03;;;;;;;0.24;73.86;100640.11;2139578;82;20994;-81
2021/10/09 05:55:11;;;;;;;40.15;21.23;;;;;;;0.51;73.42;100637.56;2115588;83;20984;-81
2021/10/09 05:57:33;;;;;;;36.97;20.77;;;;;;;0.68;73.42;100636.73;2135310;83;21027;-79
2021/10/09 06:31:19;;;;;;;54.23;30.60;;;;;;;3.11;72.14;100652.88;2115028;83;20940;-79
2021/10/09 06:43:34;;;;;;;28.70;16.07;;;;;;;4.21;71.09;100647.07;2137871;83;20939;-79
2021/10/09 06:59:33;;;;;;;31.37;14.40;;;;;;;5.85;67.79;100653.95;2148954;83;21016;-81
2021/10/09 07:02:35;;;;;;;25.80;14.63;;;;;;;6.17;66.76;100655.02;2130094;83;20896;-82
2021/10/09 07:05:41;;;;;;;26.73;14.40;;;;;;;6.39;66.09;100654.14;2148826;83;20951;-81
2021/10/09 07:08:38;;;;;;;22.97;14.27;;;;;;;6.58;64.32;100653.48;2147091;83;20978;-81
2021/10/09 07:11:38;;;;;;;28.90;15.67;;;;;;;6.73;63.61;100656.94;2147396;83;21359;-82
2021/10/09 07:14:39;;;;;;;25.33;14.80;;;;;;;6.88;63.78;100655.19;2147578;83;20924;-81
2021/10/09 07:17:39;;;;;;;21.20;13.67;;;;;;;7.08;62.26;100664.10;2147879;83;20979;-80
2021/10/09 07:20:40;;;;;;;64.00;15.67;;;;;;;7.25;62.04;100661.12;2147345;83;20931;-82
2021/10/09 07:23:40;;;;;;;27.23;14.73;;;;;;;7.50;61.13;100664.20;2147772;83;21043;-82
2021/10/09 07:26:41;;;;;;;21.70;11.80;;;;;;;7.71;61.23;100659.65;2147907;83;20935;-83
2021/10/09 07:29:41;;;;;;;24.87;12.67;;;;;;;7.93;59.83;100658.67;2147860;83;21136;-82
2021/10/09 07:32:44;;;;;;;80.53;17.47;;;;;;;8.18;59.44;100660.80;2147593;83;20928;-81
2021/10/09 07:35:44;;;;;;;31.40;12.73;;;;;;;8.40;58.83;100662.80;2148340;83;20931;-81
2021/10/09 07:38:45;;;;;;;21.27;12.17;;;;;;;8.65;58.50;100668.38;2148517;83;20955;-82
2021/10/09 07:41:45;;;;;;;18.10;11.50;;;;;;;8.85;56.86;100664.16;2148856;83;20904;-82
2021/10/09 07:44:46;;;;;;;22.53;12.30;;;;;;;9.11;56.57;100664.08;2148267;83;20971;-83
2021/10/09 07:47:46;;;;;;;20.87;11.50;;;;;;;9.28;56.09;100664.84;2149162;82;21327;-82
2021/10/09 07:50:47;;;;;;;22.90;10.27;;;;;;;9.45;55.05;100666.09;2148610;83;20916;-81
2021/10/09 07:53:47;;;;;;;18.73;11.17;;;;;;;9.51;52.77;100672.89;2148625;83;20994;-81
2021/10/09 07:56:48;;;;;;;22.23;11.10;;;;;;;9.56;53.05;100672.72;2148200;83;20904;-83
2021/10/09 07:59:48;;;;;;;22.90;11.40;;;;;;;9.71;52.81;100672.50;2148376;83;21035;-83
2021/10/09 08:02:49;;;;;;;21.13;10.57;;;;;;;9.84;51.87;100678.74;2147891;83;21390;-83
2021/10/09 08:05:51;;;;;;;28.47;11.43;;;;;;;9.81;49.33;100680.32;2148749;83;20908;-81
2021/10/09 08:08:52;;;;;;;28.57;10.90;;;;;;;9.84;50.47;100680.45;2148655;83;20983;-82
2021/10/09 08:11:52;;;;;;;17.97;11.53;;;;;;;9.95;50.08;100684.42;2148512;83;21331;-82
2021/10/09 08:14:53;;;;;;;21.80;11.20;;;;;;;10.06;50.51;100678.36;2147990;83;20963;-83
2021/10/09 08:17:53;;;;;;;19.67;11.00;;;;;;;10.16;50.43;100681.43;2148420;83;20995;-82
2021/10/09 08:21:05;;;;;;;23.63;12.00;;;;;;;10.24;49.00;100684.40;2148526;83;21296;-82
2021/10/09 08:24:18;;;;;;;27.50;11.20;;;;;;;10.27;48.48;100684.94;2148514;83;20944;-83
2021/10/09 08:40:16;;;;;;;21.67;10.53;;;;;;;10.61;48.32;100672.91;2130224;83;20991;-82
2021/10/09 08:43:17;;;;;;;21.93;10.07;;;;;;;10.74;47.05;100672.56;2148637;83;21308;-82
2021/10/09 08:46:18;;;;;;;15.97;9.70;;;;;;;10.78;46.56;100664.91;2148492;83;20963;-82
2021/10/09 08:49:21;;;;;;;28.03;10.70;;;;;;;10.92;47.11;100669.38;2139435;82;20977;-82
2021/10/09 08:52:22;;;;;;;20.87;9.10;;;;;;;11.07;46.78;100661.24;2138581;83;20985;-83
2021/10/09 08:55:23;;;;;;;17.03;9.17;;;;;;;11.17;46.43;100658.15;2138835;83;20985;-81
2021/10/09 08:58:23;;;;;;;14.85;9.40;;;;;;;11.23;45.33;100660.11;2138714;83;20957;-82
2021/10/09 09:01:27;;;;;;;13.30;7.80;;;;;;;11.27;45.50;100653.78;2138043;83;20939;-83
2021/10/09 09:04:34;;;;;;;11.97;7.90;;;;;;;11.47;44.81;100656.72;2138819;83;21047;-82
2021/10/09 09:07:44;;;;;;;10.63;7.55;;;;;;;11.59;44.71;100648.84;2137622;83;21336;-81
2021/10/09 09:27:33;;;;;;;62.90;10.03;;;;;;;11.95;41.22;100659.34;2138361;83;20935;-82
2021/10/09 09:33:40;;;;;;;9.53;5.50;;;;;;;12.06;41.87;100655.38;2114547;83;21002;-82
2021/10/09 09:39:38;;;;;;;8.65;4.22;;;;;;;12.30;40.45;100649.23;2114688;83;21051;-81
2021/10/09 09:42:38;;;;;;;6.12;4.50;;;;;;;12.39;39.76;100646.49;2139279;83;20927;-82
2021/10/09 09:45:39;;;;;;;8.13;4.42;;;;;;;12.53;39.75;100646.95;2139418;83;20996;-82
2021/10/09 09:48:39;;;;;;;12.70;4.87;;;;;;;12.65;38.32;100649.95;2145100;83;20983;-80
2021/10/09 09:51:40;;;;;;;9.75;4.53;;;;;;;12.63;37.29;100649.44;2148743;83;20939;-81
2021/10/09 09:54:40;;;;;;;9.75;4.62;;;;;;;12.54;36.77;100647.41;2148737;83;20975;-80
2021/10/09 09:57:41;;;;;;;5.45;4.00;;;;;;;12.54;36.63;100633.42;2148881;83;20931;-80
2021/10/09 10:00:41;;;;;;;9.83;4.62;;;;;;;12.57;36.57;100649.24;2148851;83;20939;-81
2021/10/09 10:03:42;;;;;;;5.00;4.03;;;;;;;12.56;35.86;100642.22;2148540;83;21386;-80
2021/10/09 10:06:42;;;;;;;8.15;4.40;;;;;;;12.62;35.57;100648.55;2148048;83;20927;-80
2021/10/09 10:09:43;;;;;;;5.85;4.30;;;;;;;12.64;37.04;100651.22;2147415;83;20962;-81
2021/10/09 10:12:43;;;;;;;9.25;4.50;;;;;;;12.66;35.02;100645.61;2147563;83;20916;-81
2021/10/09 10:15:44;;;;;;;6.58;4.05;;;;;;;12.64;36.33;100632.46;2148125;83;21434;-81
2021/10/09 10:18:44;;;;;;;12.75;4.10;;;;;;;12.78;34.96;100634.20;2148387;83;20931;-81
2021/10/09 10:21:45;;;;;;;7.10;4.55;;;;;;;12.81;35.21;100628.17;2148413;83;20939;-80
2021/10/09 10:24:46;;;;;;;11.57;4.08;;;;;;;12.88;36.18;100632.34;2150207;83;20923;-81
2021/10/09 10:27:46;;;;;;;10.23;3.83;;;;;;;12.96;35.76;100624.70;2149376;83;20947;-81
2021/10/09 10:30:49;;;;;;;7.67;3.80;;;;;;;13.00;35.23;100624.88;2150156;83;20944;-81
2021/10/09 10:33:57;;;;;;;14.75;4.17;;;;;;;13.00;34.51;100623.95;2149590;83;20971;-79
2021/10/09 10:36:51;;;;;;;11.57;4.28;;;;;;;13.00;35.07;100622.65;2147543;83;21007;-79
2021/10/09 10:39:52;;;;;;;6.10;4.15;;;;;;;13.11;34.00;100616.03;2148734;83;21355;-79
2021/10/09 10:42:52;;;;;;;11.57;4.60;;;;;;;13.14;35.25;100623.98;2149770;83;21362;-79
2021/10/09 10:45:53;;;;;;;6.15;4.33;;;;;;;13.17;35.08;100621.48;2149555;83;21122;-79
2021/10/09 10:55:06;;;;;;;8.25;4.05;;;;;;;12.98;33.85;100615.16;2131393;83;20927;-79
2021/10/09 10:58:06;;;;;;;5.67;4.37;;;;;;;13.05;34.73;100606.25;2148669;83;20971;-80
2021/10/09 11:01:07;;;;;;;7.62;4.35;;;;;;;13.04;32.91;100606.20;2149005;83;20983;-80
2021/10/09 11:04:07;;;;;;;9.95;4.47;;;;;;;13.01;34.77;100603.48;2148790;83;21412;-80
2021/10/09 11:07:08;;;;;;;10.18;4.67;;;;;;;13.04;34.44;100598.34;2148957;83;21346;-79
2021/10/09 11:10:08;;;;;;;7.12;4.08;;;;;;;13.03;34.79;100600.07;2149815;83;20939;-80
2021/10/09 11:13:12;;;;;;;11.60;4.55;;;;;;;13.05;35.26;100601.42;2149268;83;20904;-79
2021/10/09 11:16:12;;;;;;;10.72;3.58;;;;;;;13.16;35.41;100596.08;2148832;83;20961;-78
2021/10/09 11:19:13;;;;;;;14.53;5.05;;;;;;;13.26;35.09;100596.84;2148666;83;21331;-80
2021/10/09 11:22:13;;;;;;;11.68;5.97;;;;;;;13.18;35.47;100591.80;2148728;83;20927;-80
2021/10/09 11:25:14;;;;;;;9.40;5.58;;;;;;;13.14;36.10;100592.94;2148686;83;20967;-79
2021/10/09 11:28:15;;;;;;;13.72;5.50;;;;;;;13.18;35.94;100581.31;2148422;83;21292;-79
2021/10/09 11:31:15;;;;;;;8.58;6.25;;;;;;;13.15;36.23;100589.05;2148820;83;20932;-80
2021/10/09 11:34:16;;;;;;;10.35;5.78;;;;;;;13.12;36.29;100585.45;2149051;83;20990;-79
2021/10/09 11:37:16;;;;;;;12.43;6.50;;;;;;;13.06;36.87;100578.30;2149438;83;20967;-80
2021/10/09 11:40:17;;;;;;;9.33;5.92;;;;;;;13.07;36.74;100578.77;2149660;83;20943;-80
2021/10/09 11:43:29;;;;;;;13.08;6.37;;;;;;;13.13;37.75;100587.23;2149525;83;20955;-79
2021/10/09 11:56:22;;;;;;;9.55;6.53;;;;;;;13.13;37.44;100574.12;2149210;83;21396;-80
2021/10/09 11:59:22;;;;;;;18.17;8.15;;;;;;;13.10;37.09;100581.90;2148893;83;20939;-80
2021/10/09 12:02:23;;;;;;;11.93;6.17;;;;;;;13.04;37.98;100570.39;2149406;83;20916;-80
2021/10/09 12:05:32;;;;;;;9.68;6.15;;;;;;;13.14;37.26;100575.91;2149408;83;20963;-79
2021/10/09 12:08:30;;;;;;;8.33;5.50;;;;;;;13.08;37.75;100572.26;2148203;83;20931;-81
2021/10/09 12:11:30;;;;;;;7.72;5.25;;;;;;;13.07;35.75;100563.92;2148728;83;20908;-79
2021/10/09 12:14:31;;;;;;;9.18;6.17;;;;;;;13.04;36.47;100572.13;2148763;83;20967;-78
2021/10/09 12:17:31;;;;;;;6.92;5.65;;;;;;;12.99;35.89;100560.58;2147978;83;20975;-80
2021/10/09 12:20:31;;;;;;;8.50;5.80;;;;;;;12.94;36.24;100563.06;2147412;83;20912;-79
2021/10/09 12:23:32;;;;;;;11.03;5.30;;;;;;;12.93;36.17;100557.36;2146917;83;20896;-80
2021/10/09 12:26:32;;;;;;;10.90;5.45;;;;;;;12.95;36.66;100560.02;2146959;83;20904;-79
2021/10/09 12:29:34;;;;;;;8.58;5.95;;;;;;;12.95;35.83;100554.78;2147129;83;20924;-79
2021/10/09 12:32:35;;;;;;;11.15;5.25;;;;;;;12.88;35.97;100547.58;2147372;83;20939;-80
2021/10/09 12:35:36;;;;;;;11.22;5.45;;;;;;;12.94;36.88;100553.89;2147948;83;20948;-79
2021/10/09 12:38:36;;;;;;;8.15;5.00;;;;;;;12.98;35.97;100549.20;2148861;83;21307;-79
2021/10/09 12:41:40;;;;;;;29.05;16.10;;;;;;;13.00;36.29;100544.01;2148986;83;20947;-79
2021/10/09 12:44:40;;;;;;;42.77;23.43;;;;;;;13.00;36.74;100540.08;2149144;83;20939;-79
2021/10/09 12:47:41;;;;;;;29.35;14.47;;;;;;;13.08;35.94;100532.05;2148601;81;20919;-79
2021/10/09 12:50:41;;;;;;;6.58;4.50;;;;;;;13.18;36.84;100534.11;2149087;83;20959;-80
2021/10/09 12:53:43;;;;;;;6.28;4.80;;;;;;;13.23;35.50;100536.44;2149045;83;21377;-80
2021/10/09 12:56:43;;;;;;;12.35;8.15;;;;;;;13.23;35.09;100529.89;2148778;83;20919;-79
2021/10/09 12:59:44;;;;;;;9.93;6.20;;;;;;;13.22;35.70;100533.78;2149225;83;21350;-80
2021/10/09 13:02:45;;;;;;;12.33;5.03;;;;;;;13.16;35.92;100525.28;2148883;83;21398;-80
2021/10/09 13:05:45;;;;;;;6.83;4.75;;;;;;;13.21;36.87;100531.58;2148855;83;20955;-79
2021/10/09 13:08:49;;;;;;;9.18;6.80;;;;;;;13.26;35.79;100532.59;2149428;83;20920;-80
2021/10/09 13:11:54;;;;;;;12.93;5.40;;;;;;;13.27;36.58;100536.10;2149261;83;20970;-80
2021/10/09 13:14:51;;;;;;;6.08;4.70;;;;;;;13.26;36.21;100533.91;2148754;83;21634;-80
2021/10/09 13:17:52;;;;;;;7.40;5.65;;;;;;;13.24;36.41;100523.80;2149846;83;20959;-80
2021/10/09 13:20:52;;;;;;;8.68;5.00;;;;;;;13.25;36.43;100526.00;2149461;83;20924;-80
2021/10/09 13:23:53;;;;;;;7.45;5.67;;;;;;;13.24;36.39;100530.35;2148921;83;20919;-80
2021/10/09 13:26:53;;;;;;;10.50;5.20;;;;;;;13.17;36.11;100516.61;2148999;83;21376;-80
2021/10/09 13:29:54;;;;;;;10.70;5.50;;;;;;;13.20;36.45;100521.05;2148965;83;21064;-82
2021/10/09 13:32:57;;;;;;;9.23;7.05;;;;;;;13.23;36.65;100515.47;2149247;83;20948;-80
2021/10/09 13:35:57;;;;;;;8.73;5.67;;;;;;;13.23;36.25;100512.84;2148629;83;20998;-80
2021/10/09 13:38:58;;;;;;;8.45;5.62;;;;;;;13.18;36.07;100512.25;2148860;83;20955;-78
2021/10/09 13:41:59;;;;;;;8.88;5.08;;;;;;;13.10;35.99;100509.38;2148929;83;21307;-79
2021/10/09 13:44:59;;;;;;;11.20;4.75;;;;;;;13.05;35.97;100513.61;2148869;83;21327;-82
2021/10/09 13:47:59;;;;;;;8.45;5.30;;;;;;;13.00;35.98;100507.31;2148751;82;20955;-81
2021/10/09 13:51:03;;;;;;;10.15;5.30;;;;;;;12.99;36.27;100504.22;2138750;83;20956;-80
2021/10/09 13:54:04;;;;;;;8.08;5.20;;;;;;;12.96;36.72;100513.31;2139219;83;20996;-83
2021/10/09 13:57:05;;;;;;;9.13;6.97;;;;;;;12.90;36.50;100501.34;2138917;83;20939;-79
2021/10/09 14:00:05;;;;;;;10.48;6.37;;;;;;;12.85;37.10;100500.31;2139007;83;20959;-81
2021/10/09 14:03:06;;;;;;;7.25;5.30;;;;;;;12.88;36.86;100498.67;2138931;83;20955;-79
2021/10/09 14:06:06;;;;;;;8.55;5.20;;;;;;;12.86;37.04;100505.60;2139010;83;21422;-81
2021/10/09 14:09:07;;;;;;;7.58;5.28;;;;;;;12.82;37.26;100505.47;2138950;83;20951;-80
2021/10/09 14:12:07;;;;;;;9.90;5.50;;;;;;;12.80;36.98;100510.67;2138779;83;20940;-80
2021/10/09 14:15:08;;;;;;;8.38;5.10;;;;;;;12.72;36.90;100503.89;2138854;83;20967;-80
2021/10/09 14:18:10;;;;;;;8.55;5.17;;;;;;;12.65;37.12;100511.10;2138810;83;20994;-80
2021/10/09 14:21:10;;;;;;;10.95;4.67;;;;;;;12.55;36.98;100502.50;2139221;83;20932;-81
2021/10/09 14:24:11;;;;;;;10.23;5.00;;;;;;;12.56;37.28;100503.39;2139195;83;20971;-79
2021/10/09 14:27:11;;;;;;;7.53;5.55;;;;;;;12.57;37.37;100502.13;2138905;83;20936;-79
2021/10/09 14:30:11;;;;;;;12.07;6.70;;;;;;;12.50;37.13;100505.83;2138859;83;20900;-80
2021/10/09 14:33:12;;;;;;;9.38;5.87;;;;;;;12.48;36.98;100502.27;2139110;83;20904;-80
2021/10/09 14:36:12;;;;;;;11.75;6.67;;;;;;;12.42;36.79;100502.97;2138544;83;20948;-81
2021/10/09 14:39:13;;;;;;;12.80;5.92;;;;;;;12.34;36.90;100495.30;2138756;83;20991;-81
2021/10/09 14:42:14;;;;;;;7.65;5.03;;;;;;;12.30;37.46;100501.28;2138749;83;20944;-80
2021/10/09 14:45:14;;;;;;;8.03;5.40;;;;;;;12.25;37.60;100493.70;2138805;83;21043;-81
2021/10/09 14:48:21;;;;;;;6.33;4.65;;;;;;;12.17;37.46;100495.20;2139273;82;21020;-79
2021/10/09 14:51:36;;;;;;;6.60;4.50;;;;;;;12.06;37.78;100491.78;2138809;83;20936;-80
2021/10/09 15:20:42;;;;;;;7.33;5.30;;;;;;;11.16;40.52;100503.47;2115414;83;20924;-80
2021/10/09 15:23:50;;;;;;;10.53;5.83;;;;;;;11.03;41.00;100501.25;2115871;83;20968;-81
2021/10/09 15:26:50;;;;;;;22.97;9.73;;;;;;;10.95;41.43;100504.00;2139034;83;20940;-80
2021/10/09 15:29:51;;;;;;;19.00;8.83;;;;;;;10.87;42.15;100504.14;2138689;83;20952;-80
2021/10/09 15:32:51;;;;;;;13.53;6.60;;;;;;;10.76;43.08;100505.94;2139045;83;20924;-81
2021/10/09 15:35:52;;;;;;;10.07;6.33;;;;;;;10.56;43.74;100506.91;2138590;83;20979;-80
2021/10/09 15:38:52;;;;;;;9.73;5.93;;;;;;;10.37;44.33;100506.99;2138985;83;21327;-81
2021/10/09 15:41:53;;;;;;;8.97;5.90;;;;;;;10.16;44.95;100504.40;2139095;83;20943;-80
2021/10/09 15:44:54;;;;;;;12.07;5.87;;;;;;;9.95;45.17;100501.81;2139478;83;20919;-80
2021/10/09 15:47:57;;;;;;;12.10;6.77;;;;;;;9.78;45.76;100503.74;2139459;83;20959;-80
2021/10/09 15:50:57;;;;;;;16.20;9.00;;;;;;;9.63;45.95;100507.43;2147673;82;21390;-81
2021/10/09 15:54:04;;;;;;;19.93;12.07;;;;;;;9.40;46.78;100509.03;2148998;83;20943;-81
2021/10/09 15:57:08;;;;;;;32.17;16.07;;;;;;;9.21;46.98;100512.14;2148957;83;20971;-80
2021/10/09 16:00:06;;;;;;;35.13;18.60;;;;;;;9.03;47.79;100513.94;2149172;83;20959;-81
2021/10/09 16:03:07;;;;;;;45.70;21.20;;;;;;;8.84;47.71;100522.64;2149192;83;20955;-81
2021/10/09 16:06:09;;;;;;;48.93;22.10;;;;;;;8.70;48.47;100522.42;2149198;83;21035;-81
2021/10/09 16:09:09;;;;;;;62.30;27.67;;;;;;;8.49;49.20;100522.70;2148809;83;20943;-80
2021/10/09 16:12:10;;;;;;;34.20;15.87;;;;;;;8.27;50.26;100525.56;2148636;83;20970;-80
2021/10/09 16:15:10;;;;;;;50.73;24.10;;;;;;;8.05;50.79;100527.06;2148810;83;21331;-81